PACD Airport Informations

Runway Information
Runway 08 Length 4235 ft width 150 ft
Elevation 93 ft Threshold ft Heading 95
Runway 26 Length 4235 ft Width 150 ft
Elevation 96 ft Threshold ft Heading 275
Runway 14 Length 10415 ft width 150 ft
Elevation 69 ft Threshold ft Heading 158
Runway 32 Length 10415 ft Width 150 ft
Elevation 89 ft Threshold ft Heading 338
Airport Frequencies
Type ASOS Name ASOS Frequency 135.75 MHZ
Type CNTR Name ANCHORAGE Frequency 118.5 MHZ
Type CTAF Name CTAF Frequency 123.6 MHZ
Type FSS Name RDO Frequency 123.6 MHZ
Type RFSS Name KENAI RDO Frequency 123.6 MHZ
Airport Navaids
Type NDB Name Elfee Frequency 341 KHZ
Type VORTAC Name Cold Bay Frequency 112600 KHZ
Airport Weather Information & NOTAM
ADDS - METARS form results

(1848 UTC 16 August 2022)
Data provider http://aviationweather.gov/metar/data/
 
METAR text: PACD 161844Z 29012KT 10SM SCT016 11/07 A2980 RMK AO2 T01060072
Conditions at: PACD (COLD BAY , AK, US) observed 1844 UTC 16 August 2022
Temperature: 10.6°C (51°F)
Dewpoint: 7.2°C (45°F) [RH = 79%]
Pressure (altimeter): 29.80 inches Hg (1009.2 mb)
Winds: from the WNW (290 degrees) at 14 MPH (12 knots; 6.2 m/s)
Visibility: 10 or more miles (16+ km)
Ceiling: at least 12,000 feet AGL
Clouds: scattered clouds at 1600 feet AGL
Weather: no significant weather observed at this time

METAR text: PACD 161829Z 28011KT 10SM BKN014 BKN021 10/07 A2981 RMK AO2 T01000072
Conditions at: PACD (COLD BAY , AK, US) observed 1829 UTC 16 August 2022
Temperature: 10.0°C (50°F)
Dewpoint: 7.2°C (45°F) [RH = 83%]
Pressure (altimeter): 29.81 inches Hg (1009.6 mb)
Winds: from the W (280 degrees) at 13 MPH (11 knots; 5.7 m/s)
Visibility: 10 or more miles (16+ km)
Ceiling: 1400 feet AGL
Clouds: broken clouds at 1400 feet AGL
broken clouds at 2100 feet AGL
Weather: no significant weather observed at this time

METAR text: PACD 161821Z 29011KT 10SM BKN017 BKN021 09/07 A2981 RMK AO2 T00940072
Conditions at: PACD (COLD BAY , AK, US) observed 1821 UTC 16 August 2022
Temperature: 9.4°C (49°F)
Dewpoint: 7.2°C (45°F) [RH = 86%]
Pressure (altimeter): 29.81 inches Hg (1009.6 mb)
Winds: from the WNW (290 degrees) at 13 MPH (11 knots; 5.7 m/s)
Visibility: 10 or more miles (16+ km)
Ceiling: 1700 feet AGL
Clouds: broken clouds at 1700 feet AGL
broken clouds at 2100 feet AGL
Weather: no significant weather observed at this time

METAR text: PACD 161753Z 30008KT 10SM FEW100 09/08 A2982 RMK AO2 SLP097 T00890078 10089 20067
Conditions at: PACD (COLD BAY , AK, US) observed 1753 UTC 16 August 2022
Temperature: 8.9°C (48°F)
Dewpoint: 7.8°C (46°F) [RH = 93%]
Pressure (altimeter): 29.82 inches Hg (1009.9 mb)
[Sea-level pressure: 1009.7 mb]
Winds: from the WNW (300 degrees) at 9 MPH (8 knots; 4.1 m/s)
Visibility: 10 or more miles (16+ km)
Ceiling: at least 12,000 feet AGL
Clouds: few clouds at 10000 feet AGL
Weather: no significant weather observed at this time

Forecast for: PACD (COLD BAY , AK, US)
Text: PACD 161722Z 1618/1718 29004KT P6SM FEW009 SCT050 BKN090
Forecast period: 1800 UTC 16 August 2022 to 0600 UTC 17 August 2022
Forecast type: FROM: standard forecast or significant change
Winds: from the WNW (290 degrees) at 5 MPH (4 knots; 2.1 m/s)
Visibility: 6 or more miles (10+ km)
Ceiling: 9000 feet AGL
Clouds: few clouds at 900 feet AGL
scattered clouds at 5000 feet AGL
broken clouds at 9000 feet AGL
Weather: no significant weather forecast for this period
Text: FM170600 26005KT P6SM OVC025
Forecast period: 0600 to 1800 UTC 17 August 2022
Forecast type: FROM: standard forecast or significant change
Winds: from the W (260 degrees) at 6 MPH (5 knots; 2.6 m/s)
Visibility: 6 or more miles (10+ km)
Ceiling: 2500 feet AGL
Clouds: overcast cloud deck at 2500 feet AGL
Weather: no significant weather forecast for this period